sensor_id;sensor_type;location;lat;lon;timestamp;P1;durP1;ratioP1;P2;durP2;ratioP2
14858;SDS011;7521;51.700;6.874;2023-04-06T00:00:06;10.87;;;7.47;;
14858;SDS011;7521;51.700;6.874;2023-04-06T00:03:13;10.83;;;7.70;;
14858;SDS011;7521;51.700;6.874;2023-04-06T00:06:18;12.63;;;7.93;;
14858;SDS011;7521;51.700;6.874;2023-04-06T00:09:25;11.50;;;7.70;;
14858;SDS011;7521;51.700;6.874;2023-04-06T00:12:30;14.02;;;9.43;;
14858;SDS011;7521;51.700;6.874;2023-04-06T00:15:35;12.90;;;8.65;;
14858;SDS011;7521;51.700;6.874;2023-04-06T00:18:40;11.30;;;8.40;;
14858;SDS011;7521;51.700;6.874;2023-04-06T00:21:46;11.67;;;7.80;;
14858;SDS011;7521;51.700;6.874;2023-04-06T00:24:51;14.18;;;8.88;;
14858;SDS011;7521;51.700;6.874;2023-04-06T00:27:56;15.07;;;8.98;;
14858;SDS011;7521;51.700;6.874;2023-04-06T00:31:01;17.03;;;9.57;;
14858;SDS011;7521;51.700;6.874;2023-04-06T00:34:06;13.80;;;8.18;;
14858;SDS011;7521;51.700;6.874;2023-04-06T00:37:12;13.17;;;8.50;;
14858;SDS011;7521;51.700;6.874;2023-04-06T00:40:17;13.83;;;9.07;;
14858;SDS011;7521;51.700;6.874;2023-04-06T00:43:22;13.43;;;8.43;;
14858;SDS011;7521;51.700;6.874;2023-04-06T00:46:29;14.60;;;9.20;;
14858;SDS011;7521;51.700;6.874;2023-04-06T00:49:34;14.67;;;9.47;;
14858;SDS011;7521;51.700;6.874;2023-04-06T00:52:40;16.27;;;10.07;;
14858;SDS011;7521;51.700;6.874;2023-04-06T00:55:45;13.93;;;10.02;;
14858;SDS011;7521;51.700;6.874;2023-04-06T00:58:50;13.10;;;8.83;;
14858;SDS011;7521;51.700;6.874;2023-04-06T01:01:55;14.70;;;9.17;;
14858;SDS011;7521;51.700;6.874;2023-04-06T01:05:01;13.67;;;9.17;;
14858;SDS011;7521;51.700;6.874;2023-04-06T01:08:06;15.10;;;8.87;;
14858;SDS011;7521;51.700;6.874;2023-04-06T01:11:12;14.63;;;8.97;;
14858;SDS011;7521;51.700;6.874;2023-04-06T01:14:17;17.67;;;10.07;;
14858;SDS011;7521;51.700;6.874;2023-04-06T01:17:22;15.98;;;9.25;;
14858;SDS011;7521;51.700;6.874;2023-04-06T01:20:28;13.80;;;9.80;;
14858;SDS011;7521;51.700;6.874;2023-04-06T01:23:33;15.38;;;9.60;;
14858;SDS011;7521;51.700;6.874;2023-04-06T01:26:38;16.20;;;9.60;;
14858;SDS011;7521;51.700;6.874;2023-04-06T01:29:43;15.33;;;9.93;;
14858;SDS011;7521;51.700;6.874;2023-04-06T01:32:48;14.63;;;9.32;;
14858;SDS011;7521;51.700;6.874;2023-04-06T01:35:54;13.90;;;9.37;;
14858;SDS011;7521;51.700;6.874;2023-04-06T01:38:59;15.80;;;9.80;;
14858;SDS011;7521;51.700;6.874;2023-04-06T01:42:05;17.00;;;9.53;;
14858;SDS011;7521;51.700;6.874;2023-04-06T01:45:10;13.70;;;9.27;;
14858;SDS011;7521;51.700;6.874;2023-04-06T01:48:16;13.07;;;9.13;;
14858;SDS011;7521;51.700;6.874;2023-04-06T01:51:21;16.03;;;9.57;;
14858;SDS011;7521;51.700;6.874;2023-04-06T01:54:26;16.47;;;10.07;;
14858;SDS011;7521;51.700;6.874;2023-04-06T01:57:31;12.05;;;9.35;;
14858;SDS011;7521;51.700;6.874;2023-04-06T02:00:37;20.60;;;10.43;;
14858;SDS011;7521;51.700;6.874;2023-04-06T02:03:42;15.73;;;10.40;;
14858;SDS011;7521;51.700;6.874;2023-04-06T02:06:47;16.13;;;9.30;;
14858;SDS011;7521;51.700;6.874;2023-04-06T02:09:54;16.73;;;9.90;;
14858;SDS011;7521;51.700;6.874;2023-04-06T02:13:00;15.30;;;10.03;;
14858;SDS011;7521;51.700;6.874;2023-04-06T02:16:05;15.70;;;9.93;;
14858;SDS011;7521;51.700;6.874;2023-04-06T02:19:10;16.63;;;10.13;;
14858;SDS011;7521;51.700;6.874;2023-04-06T02:22:15;17.70;;;9.97;;
14858;SDS011;7521;51.700;6.874;2023-04-06T02:25:21;15.47;;;9.83;;
14858;SDS011;7521;51.700;6.874;2023-04-06T02:28:26;14.90;;;10.23;;
14858;SDS011;7521;51.700;6.874;2023-04-06T02:31:31;16.80;;;10.07;;
14858;SDS011;7521;51.700;6.874;2023-04-06T02:34:36;13.13;;;8.97;;
14858;SDS011;7521;51.700;6.874;2023-04-06T02:37:41;14.57;;;9.77;;
14858;SDS011;7521;51.700;6.874;2023-04-06T02:40:47;14.83;;;8.80;;
14858;SDS011;7521;51.700;6.874;2023-04-06T02:43:52;17.00;;;10.33;;
14858;SDS011;7521;51.700;6.874;2023-04-06T02:46:57;14.73;;;9.57;;
14858;SDS011;7521;51.700;6.874;2023-04-06T02:50:02;17.73;;;9.68;;
14858;SDS011;7521;51.700;6.874;2023-04-06T02:53:08;15.70;;;10.03;;
14858;SDS011;7521;51.700;6.874;2023-04-06T02:56:13;15.13;;;10.38;;
14858;SDS011;7521;51.700;6.874;2023-04-06T02:59:18;16.03;;;10.33;;
14858;SDS011;7521;51.700;6.874;2023-04-06T03:02:23;12.97;;;9.03;;
14858;SDS011;7521;51.700;6.874;2023-04-06T03:05:29;16.63;;;10.47;;
14858;SDS011;7521;51.700;6.874;2023-04-06T03:08:34;16.20;;;11.13;;
14858;SDS011;7521;51.700;6.874;2023-04-06T03:11:39;17.80;;;11.00;;
14858;SDS011;7521;51.700;6.874;2023-04-06T03:14:44;17.77;;;11.27;;
14858;SDS011;7521;51.700;6.874;2023-04-06T03:17:50;17.40;;;10.60;;
14858;SDS011;7521;51.700;6.874;2023-04-06T03:20:55;18.83;;;10.50;;
14858;SDS011;7521;51.700;6.874;2023-04-06T03:24:00;21.70;;;13.30;;
14858;SDS011;7521;51.700;6.874;2023-04-06T03:27:05;26.53;;;14.33;;
14858;SDS011;7521;51.700;6.874;2023-04-06T03:30:11;19.27;;;11.77;;
14858;SDS011;7521;51.700;6.874;2023-04-06T03:33:16;20.47;;;12.03;;
14858;SDS011;7521;51.700;6.874;2023-04-06T03:36:21;20.00;;;11.67;;
14858;SDS011;7521;51.700;6.874;2023-04-06T03:39:26;20.53;;;11.23;;
14858;SDS011;7521;51.700;6.874;2023-04-06T03:42:32;18.77;;;11.38;;
14858;SDS011;7521;51.700;6.874;2023-04-06T03:45:37;17.97;;;11.17;;
14858;SDS011;7521;51.700;6.874;2023-04-06T03:48:43;19.10;;;11.23;;
14858;SDS011;7521;51.700;6.874;2023-04-06T03:51:48;16.73;;;10.47;;
14858;SDS011;7521;51.700;6.874;2023-04-06T03:54:53;17.03;;;11.47;;
14858;SDS011;7521;51.700;6.874;2023-04-06T03:57:58;16.90;;;10.82;;
14858;SDS011;7521;51.700;6.874;2023-04-06T04:01:03;20.87;;;11.63;;
14858;SDS011;7521;51.700;6.874;2023-04-06T04:04:09;23.50;;;11.90;;
14858;SDS011;7521;51.700;6.874;2023-04-06T04:07:14;16.57;;;10.97;;
14858;SDS011;7521;51.700;6.874;2023-04-06T04:10:20;18.40;;;10.98;;
14858;SDS011;7521;51.700;6.874;2023-04-06T04:13:25;17.95;;;10.70;;
14858;SDS011;7521;51.700;6.874;2023-04-06T04:16:30;17.50;;;11.68;;
14858;SDS011;7521;51.700;6.874;2023-04-06T04:19:35;23.40;;;12.90;;
14858;SDS011;7521;51.700;6.874;2023-04-06T04:22:40;18.33;;;11.47;;
14858;SDS011;7521;51.700;6.874;2023-04-06T04:25:46;21.55;;;11.38;;
14858;SDS011;7521;51.700;6.874;2023-04-06T04:28:51;21.88;;;12.60;;
14858;SDS011;7521;51.700;6.874;2023-04-06T04:31:56;18.30;;;11.55;;
14858;SDS011;7521;51.700;6.874;2023-04-06T04:35:01;21.60;;;11.53;;
14858;SDS011;7521;51.700;6.874;2023-04-06T04:38:07;19.03;;;12.50;;
14858;SDS011;7521;51.700;6.874;2023-04-06T04:41:12;24.47;;;11.87;;
14858;SDS011;7521;51.700;6.874;2023-04-06T04:44:17;22.20;;;11.63;;
14858;SDS011;7521;51.700;6.874;2023-04-06T04:47:22;22.38;;;12.15;;
14858;SDS011;7521;51.700;6.874;2023-04-06T04:50:27;19.13;;;11.70;;
14858;SDS011;7521;51.700;6.874;2023-04-06T04:53:32;20.63;;;12.27;;
14858;SDS011;7521;51.700;6.874;2023-04-06T04:56:38;20.93;;;12.87;;
14858;SDS011;7521;51.700;6.874;2023-04-06T04:59:43;18.77;;;11.98;;
14858;SDS011;7521;51.700;6.874;2023-04-06T05:02:48;18.43;;;11.93;;
14858;SDS011;7521;51.700;6.874;2023-04-06T05:05:53;19.13;;;11.50;;
14858;SDS011;7521;51.700;6.874;2023-04-06T05:08:58;21.13;;;12.05;;
14858;SDS011;7521;51.700;6.874;2023-04-06T05:12:04;19.73;;;12.10;;
14858;SDS011;7521;51.700;6.874;2023-04-06T05:15:09;26.27;;;12.23;;
14858;SDS011;7521;51.700;6.874;2023-04-06T05:18:15;18.87;;;11.70;;
14858;SDS011;7521;51.700;6.874;2023-04-06T05:21:20;18.00;;;11.70;;
14858;SDS011;7521;51.700;6.874;2023-04-06T05:24:25;18.08;;;12.55;;
14858;SDS011;7521;51.700;6.874;2023-04-06T05:27:30;22.97;;;12.97;;
14858;SDS011;7521;51.700;6.874;2023-04-06T05:30:36;21.33;;;12.87;;
14858;SDS011;7521;51.700;6.874;2023-04-06T05:33:41;22.53;;;14.07;;
14858;SDS011;7521;51.700;6.874;2023-04-06T05:36:46;21.97;;;13.70;;
14858;SDS011;7521;51.700;6.874;2023-04-06T05:39:51;20.63;;;12.38;;
14858;SDS011;7521;51.700;6.874;2023-04-06T05:42:57;21.93;;;13.83;;
14858;SDS011;7521;51.700;6.874;2023-04-06T05:46:02;39.73;;;23.00;;
14858;SDS011;7521;51.700;6.874;2023-04-06T05:49:07;33.33;;;20.77;;
14858;SDS011;7521;51.700;6.874;2023-04-06T05:52:12;33.92;;;20.98;;
14858;SDS011;7521;51.700;6.874;2023-04-06T05:55:18;21.37;;;14.30;;
14858;SDS011;7521;51.700;6.874;2023-04-06T05:58:23;24.37;;;16.07;;
14858;SDS011;7521;51.700;6.874;2023-04-06T06:01:29;29.03;;;18.63;;
14858;SDS011;7521;51.700;6.874;2023-04-06T06:04:34;33.70;;;18.97;;
14858;SDS011;7521;51.700;6.874;2023-04-06T06:07:39;31.23;;;17.53;;
14858;SDS011;7521;51.700;6.874;2023-04-06T06:10:44;23.53;;;14.57;;
14858;SDS011;7521;51.700;6.874;2023-04-06T06:13:50;22.77;;;14.40;;
14858;SDS011;7521;51.700;6.874;2023-04-06T06:16:55;19.08;;;13.23;;
14858;SDS011;7521;51.700;6.874;2023-04-06T06:20:00;22.70;;;14.40;;
14858;SDS011;7521;51.700;6.874;2023-04-06T06:23:05;22.80;;;14.87;;
14858;SDS011;7521;51.700;6.874;2023-04-06T06:26:10;24.07;;;14.97;;
14858;SDS011;7521;51.700;6.874;2023-04-06T06:29:16;21.83;;;14.77;;
14858;SDS011;7521;51.700;6.874;2023-04-06T06:32:21;26.43;;;17.67;;
14858;SDS011;7521;51.700;6.874;2023-04-06T06:35:26;29.70;;;18.30;;
14858;SDS011;7521;51.700;6.874;2023-04-06T06:38:31;34.30;;;20.70;;
14858;SDS011;7521;51.700;6.874;2023-04-06T06:41:37;30.20;;;17.33;;
14858;SDS011;7521;51.700;6.874;2023-04-06T06:44:42;22.53;;;15.13;;
14858;SDS011;7521;51.700;6.874;2023-04-06T06:47:47;23.13;;;14.77;;
14858;SDS011;7521;51.700;6.874;2023-04-06T06:50:52;21.37;;;13.67;;
14858;SDS011;7521;51.700;6.874;2023-04-06T06:53:57;24.37;;;15.17;;
14858;SDS011;7521;51.700;6.874;2023-04-06T06:57:03;19.75;;;13.27;;
14858;SDS011;7521;51.700;6.874;2023-04-06T07:00:08;20.20;;;13.93;;
14858;SDS011;7521;51.700;6.874;2023-04-06T07:03:14;20.20;;;14.17;;
14858;SDS011;7521;51.700;6.874;2023-04-06T07:06:19;21.37;;;13.80;;
14858;SDS011;7521;51.700;6.874;2023-04-06T07:09:25;20.27;;;13.40;;
14858;SDS011;7521;51.700;6.874;2023-04-06T07:12:31;18.73;;;12.57;;
14858;SDS011;7521;51.700;6.874;2023-04-06T07:15:36;18.45;;;12.25;;
14858;SDS011;7521;51.700;6.874;2023-04-06T07:18:43;19.70;;;12.13;;
14858;SDS011;7521;51.700;6.874;2023-04-06T07:21:48;20.03;;;12.87;;
14858;SDS011;7521;51.700;6.874;2023-04-06T07:24:54;20.03;;;12.50;;
14858;SDS011;7521;51.700;6.874;2023-04-06T07:27:59;76.70;;;19.63;;
14858;SDS011;7521;51.700;6.874;2023-04-06T07:31:05;20.93;;;12.47;;
14858;SDS011;7521;51.700;6.874;2023-04-06T07:34:10;16.60;;;11.53;;
14858;SDS011;7521;51.700;6.874;2023-04-06T07:37:15;15.87;;;11.83;;
14858;SDS011;7521;51.700;6.874;2023-04-06T07:40:20;20.17;;;12.38;;
14858;SDS011;7521;51.700;6.874;2023-04-06T07:43:25;17.93;;;11.57;;
14858;SDS011;7521;51.700;6.874;2023-04-06T07:46:31;15.77;;;11.07;;
14858;SDS011;7521;51.700;6.874;2023-04-06T07:49:36;21.00;;;11.90;;
14858;SDS011;7521;51.700;6.874;2023-04-06T07:52:41;20.43;;;12.33;;
14858;SDS011;7521;51.700;6.874;2023-04-06T07:55:46;17.80;;;11.20;;
14858;SDS011;7521;51.700;6.874;2023-04-06T07:58:52;17.70;;;12.15;;
14858;SDS011;7521;51.700;6.874;2023-04-06T08:02:00;16.10;;;10.90;;
14858;SDS011;7521;51.700;6.874;2023-04-06T08:05:05;17.63;;;11.47;;
14858;SDS011;7521;51.700;6.874;2023-04-06T08:08:11;16.10;;;11.00;;
14858;SDS011;7521;51.700;6.874;2023-04-06T08:11:16;17.97;;;11.00;;
14858;SDS011;7521;51.700;6.874;2023-04-06T08:14:21;16.07;;;10.67;;
14858;SDS011;7521;51.700;6.874;2023-04-06T08:17:26;18.17;;;11.30;;
14858;SDS011;7521;51.700;6.874;2023-04-06T08:20:35;16.47;;;10.80;;
14858;SDS011;7521;51.700;6.874;2023-04-06T08:23:40;17.47;;;11.20;;
14858;SDS011;7521;51.700;6.874;2023-04-06T08:26:45;21.00;;;11.93;;
14858;SDS011;7521;51.700;6.874;2023-04-06T08:29:50;17.10;;;11.57;;
14858;SDS011;7521;51.700;6.874;2023-04-06T08:32:56;17.53;;;12.13;;
14858;SDS011;7521;51.700;6.874;2023-04-06T08:36:14;17.37;;;11.50;;
14858;SDS011;7521;51.700;6.874;2023-04-06T08:39:19;18.80;;;11.93;;
14858;SDS011;7521;51.700;6.874;2023-04-06T08:42:32;18.30;;;11.83;;
14858;SDS011;7521;51.700;6.874;2023-04-06T08:45:38;15.87;;;12.40;;
14858;SDS011;7521;51.700;6.874;2023-04-06T08:48:44;15.70;;;12.27;;
14858;SDS011;7521;51.700;6.874;2023-04-06T08:51:50;17.50;;;12.93;;
14858;SDS011;7521;51.700;6.874;2023-04-06T08:54:55;19.57;;;12.60;;
14858;SDS011;7521;51.700;6.874;2023-04-06T08:58:01;18.60;;;12.48;;
14858;SDS011;7521;51.700;6.874;2023-04-06T09:01:07;20.47;;;12.90;;
14858;SDS011;7521;51.700;6.874;2023-04-06T09:04:13;17.83;;;12.17;;
14858;SDS011;7521;51.700;6.874;2023-04-06T09:07:19;20.70;;;13.50;;
14858;SDS011;7521;51.700;6.874;2023-04-06T09:10:24;18.87;;;12.23;;
14858;SDS011;7521;51.700;6.874;2023-04-06T09:13:30;18.53;;;11.80;;
14858;SDS011;7521;51.700;6.874;2023-04-06T09:16:39;17.93;;;12.07;;
14858;SDS011;7521;51.700;6.874;2023-04-06T09:19:45;18.97;;;11.90;;
14858;SDS011;7521;51.700;6.874;2023-04-06T09:22:51;17.23;;;11.77;;
14858;SDS011;7521;51.700;6.874;2023-04-06T09:26:06;16.27;;;12.17;;
14858;SDS011;7521;51.700;6.874;2023-04-06T09:29:21;17.27;;;12.33;;
14858;SDS011;7521;51.700;6.874;2023-04-06T09:32:26;15.97;;;11.63;;
14858;SDS011;7521;51.700;6.874;2023-04-06T09:35:32;17.10;;;11.73;;
14858;SDS011;7521;51.700;6.874;2023-04-06T09:38:38;18.17;;;12.60;;
14858;SDS011;7521;51.700;6.874;2023-04-06T09:41:48;19.00;;;13.43;;
14858;SDS011;7521;51.700;6.874;2023-04-06T09:44:54;18.90;;;11.80;;
14858;SDS011;7521;51.700;6.874;2023-04-06T09:47:59;16.33;;;11.97;;
14858;SDS011;7521;51.700;6.874;2023-04-06T09:51:05;18.50;;;13.37;;
14858;SDS011;7521;51.700;6.874;2023-04-06T09:54:11;18.60;;;12.93;;
14858;SDS011;7521;51.700;6.874;2023-04-06T09:57:25;19.97;;;13.10;;
14858;SDS011;7521;51.700;6.874;2023-04-06T10:00:30;22.03;;;13.50;;
14858;SDS011;7521;51.700;6.874;2023-04-06T10:03:44;20.70;;;13.67;;
14858;SDS011;7521;51.700;6.874;2023-04-06T10:06:50;20.33;;;13.30;;
14858;SDS011;7521;51.700;6.874;2023-04-06T10:09:57;19.27;;;13.23;;
14858;SDS011;7521;51.700;6.874;2023-04-06T10:13:04;22.43;;;14.10;;
14858;SDS011;7521;51.700;6.874;2023-04-06T10:16:09;21.73;;;13.20;;
14858;SDS011;7521;51.700;6.874;2023-04-06T10:19:16;16.67;;;13.17;;
14858;SDS011;7521;51.700;6.874;2023-04-06T10:22:29;19.63;;;13.37;;
14858;SDS011;7521;51.700;6.874;2023-04-06T10:25:37;20.93;;;13.30;;
14858;SDS011;7521;51.700;6.874;2023-04-06T10:28:44;18.37;;;12.67;;
14858;SDS011;7521;51.700;6.874;2023-04-06T10:31:50;21.93;;;12.97;;
14858;SDS011;7521;51.700;6.874;2023-04-06T10:35:04;22.10;;;13.27;;
14858;SDS011;7521;51.700;6.874;2023-04-06T10:38:10;20.23;;;13.37;;
14858;SDS011;7521;51.700;6.874;2023-04-06T10:41:17;20.27;;;13.37;;
14858;SDS011;7521;51.700;6.874;2023-04-06T10:44:25;17.13;;;12.82;;
14858;SDS011;7521;51.700;6.874;2023-04-06T10:47:38;20.73;;;13.70;;
14858;SDS011;7521;51.700;6.874;2023-04-06T10:50:44;18.13;;;12.57;;
14858;SDS011;7521;51.700;6.874;2023-04-06T10:53:50;19.40;;;12.93;;
14858;SDS011;7521;51.700;6.874;2023-04-06T10:56:57;17.80;;;12.77;;
14858;SDS011;7521;51.700;6.874;2023-04-06T11:00:05;18.85;;;12.68;;
14858;SDS011;7521;51.700;6.874;2023-04-06T11:03:10;17.37;;;13.73;;
14858;SDS011;7521;51.700;6.874;2023-04-06T11:06:22;18.80;;;13.68;;
14858;SDS011;7521;51.700;6.874;2023-04-06T11:09:28;20.03;;;14.23;;
14858;SDS011;7521;51.700;6.874;2023-04-06T11:12:34;19.00;;;13.30;;
14858;SDS011;7521;51.700;6.874;2023-04-06T11:15:39;19.30;;;13.77;;
14858;SDS011;7521;51.700;6.874;2023-04-06T11:21:56;23.27;;;14.67;;
14858;SDS011;7521;51.700;6.874;2023-04-06T11:25:11;20.77;;;14.17;;
14858;SDS011;7521;51.700;6.874;2023-04-06T11:28:16;22.47;;;14.60;;
14858;SDS011;7521;51.700;6.874;2023-04-06T11:31:25;21.63;;;14.70;;
14858;SDS011;7521;51.700;6.874;2023-04-06T11:34:31;21.77;;;14.53;;
14858;SDS011;7521;51.700;6.874;2023-04-06T11:37:37;22.50;;;15.47;;
14858;SDS011;7521;51.700;6.874;2023-04-06T11:40:42;23.63;;;15.30;;
14858;SDS011;7521;51.700;6.874;2023-04-06T11:43:47;19.43;;;14.63;;
14858;SDS011;7521;51.700;6.874;2023-04-06T11:46:53;20.73;;;14.82;;
14858;SDS011;7521;51.700;6.874;2023-04-06T11:50:11;21.93;;;13.93;;
14858;SDS011;7521;51.700;6.874;2023-04-06T11:53:16;21.40;;;14.77;;
14858;SDS011;7521;51.700;6.874;2023-04-06T11:56:22;23.23;;;15.27;;
14858;SDS011;7521;51.700;6.874;2023-04-06T11:59:28;20.90;;;14.70;;
14858;SDS011;7521;51.700;6.874;2023-04-06T12:02:33;22.50;;;14.47;;
14858;SDS011;7521;51.700;6.874;2023-04-06T12:05:38;22.80;;;14.50;;
14858;SDS011;7521;51.700;6.874;2023-04-06T12:08:44;20.47;;;14.83;;
14858;SDS011;7521;51.700;6.874;2023-04-06T12:11:49;21.67;;;14.83;;
14858;SDS011;7521;51.700;6.874;2023-04-06T12:14:55;23.63;;;15.60;;
14858;SDS011;7521;51.700;6.874;2023-04-06T12:18:00;24.17;;;15.13;;
14858;SDS011;7521;51.700;6.874;2023-04-06T12:21:05;24.23;;;15.57;;
14858;SDS011;7521;51.700;6.874;2023-04-06T12:24:11;22.70;;;15.50;;
14858;SDS011;7521;51.700;6.874;2023-04-06T12:27:16;26.03;;;14.97;;
14858;SDS011;7521;51.700;6.874;2023-04-06T12:30:21;22.77;;;14.83;;
14858;SDS011;7521;51.700;6.874;2023-04-06T12:33:26;21.27;;;15.00;;
14858;SDS011;7521;51.700;6.874;2023-04-06T12:36:32;22.92;;;14.85;;
14858;SDS011;7521;51.700;6.874;2023-04-06T12:39:37;26.90;;;15.67;;
14858;SDS011;7521;51.700;6.874;2023-04-06T12:42:42;21.85;;;15.55;;
14858;SDS011;7521;51.700;6.874;2023-04-06T12:45:47;21.17;;;14.47;;
14858;SDS011;7521;51.700;6.874;2023-04-06T12:48:52;19.80;;;14.10;;
14858;SDS011;7521;51.700;6.874;2023-04-06T12:52:01;25.27;;;15.27;;
14858;SDS011;7521;51.700;6.874;2023-04-06T12:55:07;21.83;;;15.33;;
14858;SDS011;7521;51.700;6.874;2023-04-06T12:58:12;23.33;;;13.90;;
14858;SDS011;7521;51.700;6.874;2023-04-06T13:01:17;22.38;;;14.80;;
14858;SDS011;7521;51.700;6.874;2023-04-06T13:04:22;24.53;;;15.77;;
14858;SDS011;7521;51.700;6.874;2023-04-06T13:07:28;22.60;;;14.27;;
14858;SDS011;7521;51.700;6.874;2023-04-06T13:10:33;21.80;;;14.00;;
14858;SDS011;7521;51.700;6.874;2023-04-06T13:13:38;23.38;;;14.32;;
14858;SDS011;7521;51.700;6.874;2023-04-06T13:16:43;24.63;;;14.47;;
14858;SDS011;7521;51.700;6.874;2023-04-06T13:19:49;22.00;;;14.27;;
14858;SDS011;7521;51.700;6.874;2023-04-06T13:22:54;24.13;;;14.87;;
14858;SDS011;7521;51.700;6.874;2023-04-06T13:26:03;20.48;;;14.63;;
14858;SDS011;7521;51.700;6.874;2023-04-06T13:29:14;20.37;;;13.93;;
14858;SDS011;7521;51.700;6.874;2023-04-06T13:32:22;21.70;;;13.53;;
14858;SDS011;7521;51.700;6.874;2023-04-06T13:35:27;19.23;;;13.07;;
14858;SDS011;7521;51.700;6.874;2023-04-06T13:38:32;16.95;;;12.02;;
14858;SDS011;7521;51.700;6.874;2023-04-06T13:41:38;18.43;;;12.10;;
14858;SDS011;7521;51.700;6.874;2023-04-06T13:44:45;14.07;;;10.63;;
14858;SDS011;7521;51.700;6.874;2023-04-06T13:47:51;12.87;;;9.23;;
14858;SDS011;7521;51.700;6.874;2023-04-06T13:50:57;18.17;;;10.87;;
14858;SDS011;7521;51.700;6.874;2023-04-06T13:54:02;18.43;;;10.03;;
14858;SDS011;7521;51.700;6.874;2023-04-06T13:57:07;14.03;;;8.90;;
14858;SDS011;7521;51.700;6.874;2023-04-06T14:00:13;13.82;;;9.43;;
14858;SDS011;7521;51.700;6.874;2023-04-06T14:03:19;11.73;;;8.73;;
14858;SDS011;7521;51.700;6.874;2023-04-06T14:06:25;10.50;;;7.73;;
14858;SDS011;7521;51.700;6.874;2023-04-06T14:09:31;14.90;;;8.83;;
14858;SDS011;7521;51.700;6.874;2023-04-06T14:12:36;10.82;;;8.07;;
14858;SDS011;7521;51.700;6.874;2023-04-06T14:15:41;11.00;;;8.45;;
14858;SDS011;7521;51.700;6.874;2023-04-06T14:18:46;11.00;;;8.50;;
14858;SDS011;7521;51.700;6.874;2023-04-06T14:21:51;13.65;;;9.65;;
14858;SDS011;7521;51.700;6.874;2023-04-06T14:24:56;12.13;;;8.52;;
14858;SDS011;7521;51.700;6.874;2023-04-06T14:28:02;10.90;;;8.07;;
14858;SDS011;7521;51.700;6.874;2023-04-06T14:31:11;12.87;;;8.00;;
14858;SDS011;7521;51.700;6.874;2023-04-06T14:34:16;11.47;;;7.90;;
14858;SDS011;7521;51.700;6.874;2023-04-06T14:37:22;10.77;;;7.47;;
14858;SDS011;7521;51.700;6.874;2023-04-06T14:40:27;11.60;;;7.63;;
14858;SDS011;7521;51.700;6.874;2023-04-06T14:43:32;10.65;;;7.13;;
14858;SDS011;7521;51.700;6.874;2023-04-06T14:46:37;11.57;;;7.33;;
14858;SDS011;7521;51.700;6.874;2023-04-06T14:49:43;11.07;;;8.27;;
14858;SDS011;7521;51.700;6.874;2023-04-06T14:52:48;11.40;;;7.47;;
14858;SDS011;7521;51.700;6.874;2023-04-06T14:55:53;9.07;;;7.50;;
14858;SDS011;7521;51.700;6.874;2023-04-06T14:58:59;11.60;;;8.30;;
14858;SDS011;7521;51.700;6.874;2023-04-06T15:02:06;13.67;;;8.20;;
14858;SDS011;7521;51.700;6.874;2023-04-06T15:05:11;12.20;;;8.80;;
14858;SDS011;7521;51.700;6.874;2023-04-06T15:08:16;11.30;;;8.93;;
14858;SDS011;7521;51.700;6.874;2023-04-06T15:11:25;14.30;;;9.13;;
14858;SDS011;7521;51.700;6.874;2023-04-06T15:14:31;10.50;;;9.03;;
14858;SDS011;7521;51.700;6.874;2023-04-06T15:17:36;11.40;;;8.73;;
14858;SDS011;7521;51.700;6.874;2023-04-06T15:20:41;12.73;;;9.83;;
14858;SDS011;7521;51.700;6.874;2023-04-06T15:23:46;13.90;;;10.00;;
14858;SDS011;7521;51.700;6.874;2023-04-06T15:26:52;13.77;;;9.40;;
14858;SDS011;7521;51.700;6.874;2023-04-06T15:29:57;15.10;;;9.97;;
14858;SDS011;7521;51.700;6.874;2023-04-06T15:33:03;11.00;;;8.93;;
14858;SDS011;7521;51.700;6.874;2023-04-06T15:36:25;12.03;;;10.03;;
14858;SDS011;7521;51.700;6.874;2023-04-06T15:39:31;13.83;;;9.57;;
14858;SDS011;7521;51.700;6.874;2023-04-06T15:42:39;12.27;;;9.10;;
14858;SDS011;7521;51.700;6.874;2023-04-06T15:45:44;13.23;;;9.60;;
14858;SDS011;7521;51.700;6.874;2023-04-06T15:48:49;13.13;;;9.60;;
14858;SDS011;7521;51.700;6.874;2023-04-06T15:51:54;15.27;;;9.17;;
14858;SDS011;7521;51.700;6.874;2023-04-06T15:55:00;13.25;;;9.55;;
14858;SDS011;7521;51.700;6.874;2023-04-06T15:58:05;14.17;;;8.63;;
14858;SDS011;7521;51.700;6.874;2023-04-06T16:01:12;12.17;;;8.67;;
14858;SDS011;7521;51.700;6.874;2023-04-06T16:04:18;12.53;;;8.80;;
14858;SDS011;7521;51.700;6.874;2023-04-06T16:07:23;9.87;;;8.60;;
14858;SDS011;7521;51.700;6.874;2023-04-06T16:10:28;11.63;;;8.67;;
14858;SDS011;7521;51.700;6.874;2023-04-06T16:13:34;12.47;;;8.80;;
14858;SDS011;7521;51.700;6.874;2023-04-06T16:16:39;12.77;;;8.87;;
14858;SDS011;7521;51.700;6.874;2023-04-06T16:19:47;15.67;;;9.73;;
14858;SDS011;7521;51.700;6.874;2023-04-06T16:22:53;14.17;;;9.93;;
14858;SDS011;7521;51.700;6.874;2023-04-06T16:26:01;13.50;;;10.20;;
14858;SDS011;7521;51.700;6.874;2023-04-06T16:29:09;15.98;;;10.05;;
14858;SDS011;7521;51.700;6.874;2023-04-06T16:32:16;12.93;;;10.60;;
14858;SDS011;7521;51.700;6.874;2023-04-06T16:35:22;14.63;;;10.32;;
14858;SDS011;7521;51.700;6.874;2023-04-06T16:38:27;14.53;;;10.53;;
14858;SDS011;7521;51.700;6.874;2023-04-06T16:41:38;15.07;;;9.93;;
14858;SDS011;7521;51.700;6.874;2023-04-06T16:44:43;15.20;;;10.23;;
14858;SDS011;7521;51.700;6.874;2023-04-06T16:47:48;17.73;;;11.00;;
14858;SDS011;7521;51.700;6.874;2023-04-06T16:50:56;12.83;;;10.10;;
14858;SDS011;7521;51.700;6.874;2023-04-06T16:54:01;12.80;;;8.95;;
14858;SDS011;7521;51.700;6.874;2023-04-06T16:57:07;10.13;;;7.80;;
14858;SDS011;7521;51.700;6.874;2023-04-06T17:00:16;11.93;;;8.50;;
14858;SDS011;7521;51.700;6.874;2023-04-06T17:03:21;9.97;;;8.13;;
14858;SDS011;7521;51.700;6.874;2023-04-06T17:06:26;11.07;;;8.60;;
14858;SDS011;7521;51.700;6.874;2023-04-06T17:09:32;10.33;;;8.43;;
14858;SDS011;7521;51.700;6.874;2023-04-06T17:12:37;11.03;;;8.23;;
14858;SDS011;7521;51.700;6.874;2023-04-06T17:15:43;10.63;;;8.27;;
14858;SDS011;7521;51.700;6.874;2023-04-06T17:18:48;13.80;;;9.80;;
14858;SDS011;7521;51.700;6.874;2023-04-06T17:21:53;11.73;;;7.97;;
14858;SDS011;7521;51.700;6.874;2023-04-06T17:24:59;10.33;;;8.30;;
14858;SDS011;7521;51.700;6.874;2023-04-06T17:28:06;10.27;;;7.87;;
14858;SDS011;7521;51.700;6.874;2023-04-06T17:31:12;13.52;;;8.52;;
14858;SDS011;7521;51.700;6.874;2023-04-06T17:34:17;11.97;;;9.40;;
14858;SDS011;7521;51.700;6.874;2023-04-06T17:37:22;9.52;;;8.50;;
14858;SDS011;7521;51.700;6.874;2023-04-06T17:40:27;9.67;;;8.33;;
14858;SDS011;7521;51.700;6.874;2023-04-06T17:43:32;10.77;;;8.40;;
14858;SDS011;7521;51.700;6.874;2023-04-06T17:46:37;10.20;;;8.40;;
14858;SDS011;7521;51.700;6.874;2023-04-06T17:49:43;10.63;;;8.17;;
14858;SDS011;7521;51.700;6.874;2023-04-06T17:52:48;10.53;;;7.47;;
14858;SDS011;7521;51.700;6.874;2023-04-06T17:55:55;9.53;;;7.43;;
14858;SDS011;7521;51.700;6.874;2023-04-06T17:59:01;9.43;;;7.70;;
14858;SDS011;7521;51.700;6.874;2023-04-06T18:02:06;9.67;;;7.13;;
14858;SDS011;7521;51.700;6.874;2023-04-06T18:05:11;10.90;;;8.57;;
14858;SDS011;7521;51.700;6.874;2023-04-06T18:08:17;10.43;;;7.27;;
14858;SDS011;7521;51.700;6.874;2023-04-06T18:11:22;11.57;;;9.07;;
14858;SDS011;7521;51.700;6.874;2023-04-06T18:14:27;12.63;;;10.87;;
14858;SDS011;7521;51.700;6.874;2023-04-06T18:17:33;9.43;;;8.00;;
14858;SDS011;7521;51.700;6.874;2023-04-06T18:20:38;9.33;;;8.33;;
14858;SDS011;7521;51.700;6.874;2023-04-06T18:23:44;10.40;;;7.97;;
14858;SDS011;7521;51.700;6.874;2023-04-06T18:26:50;10.70;;;9.53;;
14858;SDS011;7521;51.700;6.874;2023-04-06T18:29:55;10.83;;;8.07;;
14858;SDS011;7521;51.700;6.874;2023-04-06T18:33:00;10.63;;;7.80;;